BAW45P EGLL-EGPH
Flight info
| Callsign | BAW45P |
|---|---|
| Flight time | 0h 58m |
| Altitude | 32000 |
| Route | ULTIB T420 TNT UN57 POL UN601 RIBEL DCT INPIP |
| Aircraft | A319/M-SDE3FGHIRWY/LB1 |
Departure
| Time | 2026-05-05 18:36 |
|---|---|
| Airport | London Heathrow Airport (EGLL) |
Arrival
| Time | 2026-05-05 19:35 |
|---|---|
| Airport | Edinburgh Airport (EGPH) |
| Time | Latitude | Longitude | Altitude | Speed | Heading |
|---|---|---|---|---|---|
| 2026-05-05 17:55 | 51.47399 | -0.48589 | 86 ft | 3 kts | 270° |
| 2026-05-05 17:56 | 51.47399 | -0.48588 | 87 ft | 1 kts | 270° |
| 2026-05-05 17:56 | 51.47399 | -0.48589 | 86 ft | 0 kts | 270° |
| 2026-05-05 18:10 | 51.47399 | -0.48588 | 86 ft | 0 kts | 270° |
| 2026-05-05 18:20 | 51.47400 | -0.48555 | 86 ft | 4 kts | 270° |
| 2026-05-05 18:20 | 51.47400 | -0.48520 | 86 ft | 4 kts | 266° |
| 2026-05-05 18:20 | 51.47407 | -0.48484 | 88 ft | 4 kts | 215° |
| 2026-05-05 18:21 | 51.47428 | -0.48475 | 88 ft | 4 kts | 179° |
| 2026-05-05 18:21 | 51.47437 | -0.48475 | 87 ft | 0 kts | 179° |
| 2026-05-05 18:29 | 51.47438 | -0.48475 | 86 ft | 0 kts | 179° |
| 2026-05-05 18:30 | 51.47435 | -0.48475 | 86 ft | 1 kts | 179° |
| 2026-05-05 18:31 | 51.47417 | -0.48475 | 89 ft | 4 kts | 180° |
| 2026-05-05 18:31 | 51.47383 | -0.48475 | 86 ft | 6 kts | 180° |
| 2026-05-05 18:31 | 51.47336 | -0.48474 | 86 ft | 8 kts | 180° |
| 2026-05-05 18:31 | 51.47277 | -0.48474 | 86 ft | 9 kts | 180° |
| 2026-05-05 18:32 | 51.47205 | -0.48474 | 86 ft | 11 kts | 180° |
| 2026-05-05 18:32 | 51.47118 | -0.48473 | 86 ft | 13 kts | 179° |
| 2026-05-05 18:32 | 51.47017 | -0.48472 | 86 ft | 16 kts | 179° |
| 2026-05-05 18:32 | 51.46902 | -0.48471 | 86 ft | 18 kts | 179° |
| 2026-05-05 18:33 | 51.46819 | -0.48470 | 86 ft | 8 kts | 180° |
| 2026-05-05 18:33 | 51.46816 | -0.48470 | 86 ft | 0 kts | 180° |
| 2026-05-05 18:34 | 51.46802 | -0.48470 | 86 ft | 4 kts | 180° |
| 2026-05-05 18:34 | 51.46759 | -0.48470 | 86 ft | 8 kts | 180° |
| 2026-05-05 18:35 | 51.46688 | -0.48469 | 86 ft | 12 kts | 179° |
| 2026-05-05 18:35 | 51.46591 | -0.48467 | 86 ft | 16 kts | 179° |
| 2026-05-05 18:35 | 51.46507 | -0.48465 | 87 ft | 9 kts | 173° |
| 2026-05-05 18:35 | 51.46480 | -0.48367 | 87 ft | 13 kts | 90° |
| 2026-05-05 18:36 | 51.46475 | -0.47940 | 87 ft | 73 kts | 91° |
| 2026-05-05 18:36 | 51.46481 | -0.46801 | 89 ft | 129 kts | 89° |
| 2026-05-05 18:36 | 51.46494 | -0.45107 | 132 ft | 170 kts | 87° |
| 2026-05-05 18:36 | 51.46513 | -0.43237 | 800 ft | 168 kts | 88° |
| 2026-05-05 18:37 | 51.46578 | -0.41348 | 1410 ft | 173 kts | 79° |
| 2026-05-05 18:37 | 51.46984 | -0.39447 | 1752 ft | 193 kts | 59° |
| 2026-05-05 18:37 | 51.47865 | -0.37643 | 2009 ft | 219 kts | 48° |
| 2026-05-05 18:37 | 51.48937 | -0.35706 | 2445 ft | 243 kts | 48° |
| 2026-05-05 18:38 | 51.50090 | -0.33627 | 3275 ft | 253 kts | 47° |
| 2026-05-05 18:38 | 51.51261 | -0.31507 | 4319 ft | 255 kts | 48° |
| 2026-05-05 18:38 | 51.52380 | -0.29276 | 5318 ft | 260 kts | 58° |
| 2026-05-05 18:38 | 51.53037 | -0.26522 | 5929 ft | 267 kts | 73° |
| 2026-05-05 18:39 | 51.53666 | -0.23710 | 6001 ft | 266 kts | 54° |
| 2026-05-05 18:39 | 51.55052 | -0.21862 | 6010 ft | 261 kts | 20° |
| 2026-05-05 18:39 | 51.56843 | -0.21524 | 6006 ft | 261 kts | 355° |
| 2026-05-05 18:39 | 51.58638 | -0.22005 | 6077 ft | 263 kts | 347° |
| 2026-05-05 18:40 | 51.60385 | -0.22735 | 6081 ft | 262 kts | 345° |
| 2026-05-05 18:40 | 51.62077 | -0.23812 | 6090 ft | 263 kts | 330° |
| 2026-05-05 18:40 | 51.63585 | -0.25489 | 6086 ft | 264 kts | 326° |
| 2026-05-05 18:40 | 51.65121 | -0.27106 | 6096 ft | 264 kts | 329° |
| 2026-05-05 18:41 | 51.66667 | -0.28621 | 6084 ft | 263 kts | 330° |
| 2026-05-05 18:41 | 51.68244 | -0.30122 | 6086 ft | 264 kts | 330° |
| 2026-05-05 18:41 | 51.69832 | -0.31623 | 6183 ft | 267 kts | 330° |
| 2026-05-05 18:41 | 51.71433 | -0.33142 | 7096 ft | 267 kts | 330° |
| 2026-05-05 18:42 | 51.73040 | -0.34676 | 8011 ft | 270 kts | 329° |
| 2026-05-05 18:42 | 51.74665 | -0.36236 | 8924 ft | 274 kts | 329° |
| 2026-05-05 18:42 | 51.76312 | -0.37826 | 9827 ft | 278 kts | 329° |
| 2026-05-05 18:42 | 51.78011 | -0.39472 | 10294 ft | 295 kts | 329° |
| 2026-05-05 18:43 | 51.79838 | -0.41241 | 10649 ft | 315 kts | 329° |
| 2026-05-05 18:43 | 51.81737 | -0.43079 | 11341 ft | 320 kts | 328° |
| 2026-05-05 18:43 | 51.83662 | -0.44946 | 12109 ft | 325 kts | 328° |
| 2026-05-05 18:43 | 51.85611 | -0.46838 | 12853 ft | 329 kts | 328° |
| 2026-05-05 18:44 | 51.87593 | -0.48764 | 13541 ft | 335 kts | 327° |
| 2026-05-05 18:44 | 51.89603 | -0.50725 | 13884 ft | 338 kts | 327° |
| 2026-05-05 18:44 | 51.91623 | -0.52698 | 14132 ft | 340 kts | 327° |
| 2026-05-05 18:44 | 51.93652 | -0.54677 | 14831 ft | 342 kts | 327° |
| 2026-05-05 18:45 | 51.95707 | -0.56679 | 15428 ft | 347 kts | 327° |
| 2026-05-05 18:45 | 51.97790 | -0.58707 | 16053 ft | 352 kts | 328° |
| 2026-05-05 18:45 | 51.99902 | -0.60764 | 16672 ft | 356 kts | 328° |
| 2026-05-05 18:45 | 52.02039 | -0.62858 | 17291 ft | 361 kts | 328° |
| 2026-05-05 18:46 | 52.04200 | -0.64981 | 17912 ft | 365 kts | 328° |
| 2026-05-05 18:46 | 52.06388 | -0.67131 | 18508 ft | 370 kts | 328° |
| 2026-05-05 18:46 | 52.08594 | -0.69301 | 19101 ft | 372 kts | 327° |
| 2026-05-05 18:46 | 52.10816 | -0.71491 | 19720 ft | 374 kts | 327° |
| 2026-05-05 18:47 | 52.13049 | -0.73694 | 20338 ft | 376 kts | 327° |
| 2026-05-05 18:47 | 52.15293 | -0.75904 | 20959 ft | 379 kts | 327° |
| 2026-05-05 18:47 | 52.17554 | -0.78130 | 21565 ft | 381 kts | 327° |
| 2026-05-05 18:47 | 52.19826 | -0.80371 | 22149 ft | 383 kts | 327° |
| 2026-05-05 18:48 | 52.22115 | -0.82631 | 22722 ft | 386 kts | 327° |
| 2026-05-05 18:48 | 52.24417 | -0.84910 | 23288 ft | 389 kts | 327° |
| 2026-05-05 18:48 | 52.26736 | -0.87213 | 23790 ft | 392 kts | 326° |
| 2026-05-05 18:48 | 52.29072 | -0.89541 | 24236 ft | 395 kts | 326° |
| 2026-05-05 18:49 | 52.31432 | -0.91895 | 24635 ft | 400 kts | 326° |
| 2026-05-05 18:49 | 52.33819 | -0.94272 | 25055 ft | 403 kts | 326° |
| 2026-05-05 18:49 | 52.36225 | -0.96665 | 25473 ft | 407 kts | 326° |
| 2026-05-05 18:49 | 52.38655 | -0.99085 | 25891 ft | 410 kts | 326° |
| 2026-05-05 18:50 | 52.41100 | -1.01525 | 26334 ft | 413 kts | 326° |
| 2026-05-05 18:50 | 52.43558 | -1.03983 | 26752 ft | 416 kts | 326° |
| 2026-05-05 18:50 | 52.46039 | -1.06471 | 27161 ft | 419 kts | 325° |
| 2026-05-05 18:50 | 52.47688 | -1.08131 | 27435 ft | 421 kts | 325° |
| 2026-05-05 18:51 | 52.50198 | -1.10660 | 27844 ft | 425 kts | 325° |
| 2026-05-05 18:51 | 52.52724 | -1.13208 | 28270 ft | 428 kts | 325° |
| 2026-05-05 18:51 | 52.55267 | -1.15770 | 28691 ft | 431 kts | 325° |
| 2026-05-05 18:51 | 52.57830 | -1.18351 | 29098 ft | 434 kts | 325° |
| 2026-05-05 18:52 | 52.60413 | -1.20954 | 29493 ft | 437 kts | 325° |
| 2026-05-05 18:52 | 52.63011 | -1.23577 | 29885 ft | 440 kts | 325° |
| 2026-05-05 18:52 | 52.65626 | -1.26223 | 30231 ft | 443 kts | 325° |
| 2026-05-05 18:52 | 52.68257 | -1.28889 | 30562 ft | 445 kts | 325° |
| 2026-05-05 18:53 | 52.70898 | -1.31567 | 30900 ft | 447 kts | 325° |
| 2026-05-05 18:53 | 52.73553 | -1.34267 | 31237 ft | 449 kts | 325° |
| 2026-05-05 18:53 | 52.76213 | -1.36978 | 31571 ft | 451 kts | 326° |
| 2026-05-05 18:53 | 52.78878 | -1.39700 | 31929 ft | 450 kts | 326° |
| 2026-05-05 18:54 | 52.84097 | -1.45031 | 32002 ft | 428 kts | 326° |
| 2026-05-05 18:54 | 52.89065 | -1.50121 | 32003 ft | 416 kts | 326° |
| 2026-05-05 18:55 | 52.93952 | -1.55159 | 32001 ft | 412 kts | 326° |
| 2026-05-05 18:55 | 52.98806 | -1.60168 | 32004 ft | 410 kts | 326° |
| 2026-05-05 18:56 | 53.03634 | -1.65167 | 32006 ft | 408 kts | 327° |
| 2026-05-05 18:56 | 53.08795 | -1.69088 | 32009 ft | 410 kts | 339° |
| 2026-05-05 18:57 | 53.14141 | -1.72378 | 32004 ft | 409 kts | 339° |
| 2026-05-05 18:57 | 53.19472 | -1.75706 | 32011 ft | 409 kts | 338° |
| 2026-05-05 18:58 | 53.24807 | -1.79037 | 32022 ft | 409 kts | 338° |
| 2026-05-05 18:58 | 53.30147 | -1.82369 | 32013 ft | 410 kts | 337° |
| 2026-05-05 18:59 | 53.35485 | -1.85704 | 32014 ft | 410 kts | 338° |
| 2026-05-05 18:59 | 53.40824 | -1.89063 | 32018 ft | 410 kts | 337° |
| 2026-05-05 19:00 | 53.46156 | -1.92419 | 32022 ft | 409 kts | 338° |
| 2026-05-05 19:00 | 53.51494 | -1.95775 | 32022 ft | 409 kts | 337° |
| 2026-05-05 19:01 | 53.56826 | -1.99147 | 32033 ft | 409 kts | 338° |
| 2026-05-05 19:01 | 53.62154 | -2.02535 | 32033 ft | 409 kts | 336° |
| 2026-05-05 19:02 | 53.67482 | -2.05928 | 32033 ft | 409 kts | 338° |
| 2026-05-05 19:02 | 53.72751 | -2.09291 | 32050 ft | 410 kts | 336° |
| 2026-05-05 19:03 | 53.78075 | -2.12753 | 32033 ft | 410 kts | 335° |
| 2026-05-05 19:03 | 53.83368 | -2.16383 | 32037 ft | 411 kts | 335° |
| 2026-05-05 19:04 | 53.88659 | -2.20053 | 32041 ft | 411 kts | 335° |
| 2026-05-05 19:04 | 53.93962 | -2.23704 | 32050 ft | 411 kts | 335° |
| 2026-05-05 19:05 | 53.99269 | -2.27345 | 32061 ft | 411 kts | 334° |
| 2026-05-05 19:05 | 54.04578 | -2.31005 | 32060 ft | 412 kts | 334° |
| 2026-05-05 19:06 | 54.09886 | -2.34674 | 32052 ft | 412 kts | 334° |
| 2026-05-05 19:06 | 54.15196 | -2.38349 | 32058 ft | 412 kts | 334° |
| 2026-05-05 19:07 | 54.20502 | -2.42030 | 32050 ft | 412 kts | 334° |
| 2026-05-05 19:07 | 54.23153 | -2.43874 | 31889 ft | 411 kts | 334° |
| 2026-05-05 19:07 | 54.25799 | -2.45719 | 31633 ft | 410 kts | 334° |
| 2026-05-05 19:08 | 54.28433 | -2.47557 | 31378 ft | 408 kts | 334° |
| 2026-05-05 19:08 | 54.31057 | -2.49388 | 31125 ft | 406 kts | 334° |
| 2026-05-05 19:08 | 54.33673 | -2.51217 | 30879 ft | 405 kts | 334° |
| 2026-05-05 19:08 | 54.36274 | -2.53044 | 30631 ft | 403 kts | 334° |
| 2026-05-05 19:09 | 54.38865 | -2.54869 | 30388 ft | 402 kts | 334° |
| 2026-05-05 19:09 | 54.41447 | -2.56690 | 30134 ft | 401 kts | 334° |
| 2026-05-05 19:09 | 54.44020 | -2.58507 | 29851 ft | 399 kts | 334° |
| 2026-05-05 19:09 | 54.46581 | -2.60311 | 29563 ft | 397 kts | 334° |
| 2026-05-05 19:10 | 54.49128 | -2.62107 | 29295 ft | 393 kts | 334° |
| 2026-05-05 19:10 | 54.51651 | -2.63887 | 29019 ft | 391 kts | 334° |
| 2026-05-05 19:10 | 54.54155 | -2.65659 | 28742 ft | 388 kts | 334° |
| 2026-05-05 19:10 | 54.56650 | -2.67426 | 28468 ft | 386 kts | 334° |
| 2026-05-05 19:11 | 54.59129 | -2.69184 | 28198 ft | 384 kts | 334° |
| 2026-05-05 19:11 | 54.61581 | -2.70927 | 27926 ft | 379 kts | 334° |
| 2026-05-05 19:11 | 54.64016 | -2.72658 | 27663 ft | 377 kts | 334° |
| 2026-05-05 19:11 | 54.66431 | -2.74378 | 27391 ft | 375 kts | 334° |
| 2026-05-05 19:12 | 54.68839 | -2.76094 | 27131 ft | 373 kts | 334° |
| 2026-05-05 19:12 | 54.71234 | -2.77805 | 26868 ft | 372 kts | 334° |
| 2026-05-05 19:12 | 54.73616 | -2.79509 | 26632 ft | 370 kts | 334° |
| 2026-05-05 19:12 | 54.75987 | -2.81208 | 26375 ft | 368 kts | 334° |
| 2026-05-05 19:13 | 54.78351 | -2.82903 | 26135 ft | 366 kts | 334° |
| 2026-05-05 19:13 | 54.80700 | -2.84591 | 26044 ft | 365 kts | 334° |
| 2026-05-05 19:13 | 54.83048 | -2.86285 | 26068 ft | 366 kts | 334° |
| 2026-05-05 19:13 | 54.85399 | -2.87980 | 26070 ft | 366 kts | 334° |
| 2026-05-05 19:14 | 54.87747 | -2.89675 | 26075 ft | 366 kts | 334° |
| 2026-05-05 19:14 | 54.90102 | -2.91380 | 25723 ft | 369 kts | 334° |
| 2026-05-05 19:14 | 54.92514 | -2.93130 | 25014 ft | 378 kts | 335° |
| 2026-05-05 19:14 | 54.94906 | -2.94855 | 24874 ft | 366 kts | 335° |
| 2026-05-05 19:15 | 54.97230 | -2.96527 | 24543 ft | 357 kts | 335° |
| 2026-05-05 19:15 | 54.99511 | -2.98172 | 24076 ft | 353 kts | 334° |
| 2026-05-05 19:15 | 55.01767 | -2.99805 | 23559 ft | 349 kts | 334° |
| 2026-05-05 19:15 | 55.04013 | -3.01441 | 22613 ft | 354 kts | 334° |
| 2026-05-05 19:16 | 55.06301 | -3.03114 | 21892 ft | 354 kts | 334° |
| 2026-05-05 19:16 | 55.08544 | -3.04746 | 21459 ft | 345 kts | 334° |
| 2026-05-05 19:16 | 55.10742 | -3.06345 | 20981 ft | 339 kts | 334° |
| 2026-05-05 19:16 | 55.12902 | -3.07924 | 20524 ft | 334 kts | 334° |
| 2026-05-05 19:17 | 55.15046 | -3.09498 | 20060 ft | 333 kts | 334° |
| 2026-05-05 19:17 | 55.17187 | -3.11071 | 19498 ft | 335 kts | 334° |
| 2026-05-05 19:17 | 55.19351 | -3.12661 | 18821 ft | 341 kts | 334° |
| 2026-05-05 19:17 | 55.21540 | -3.14270 | 18076 ft | 341 kts | 334° |
| 2026-05-05 19:18 | 55.23720 | -3.15870 | 17341 ft | 338 kts | 334° |
| 2026-05-05 19:18 | 55.25876 | -3.17453 | 16567 ft | 333 kts | 334° |
| 2026-05-05 19:18 | 55.27971 | -3.18991 | 16160 ft | 319 kts | 334° |
| 2026-05-05 19:18 | 55.29973 | -3.20462 | 15789 ft | 305 kts | 334° |
| 2026-05-05 19:19 | 55.31895 | -3.21874 | 15436 ft | 293 kts | 334° |
| 2026-05-05 19:19 | 55.33742 | -3.23237 | 15096 ft | 283 kts | 334° |
| 2026-05-05 19:19 | 55.35528 | -3.24560 | 14768 ft | 277 kts | 334° |
| 2026-05-05 19:19 | 55.37302 | -3.25882 | 14438 ft | 276 kts | 334° |
| 2026-05-05 19:20 | 55.39042 | -3.27180 | 14117 ft | 275 kts | 334° |
| 2026-05-05 19:20 | 55.40822 | -3.28504 | 13791 ft | 274 kts | 334° |
| 2026-05-05 19:20 | 55.42551 | -3.29790 | 13495 ft | 271 kts | 334° |
| 2026-05-05 19:20 | 55.44252 | -3.31055 | 13419 ft | 260 kts | 334° |
| 2026-05-05 19:21 | 55.45886 | -3.32271 | 13313 ft | 250 kts | 334° |
| 2026-05-05 19:21 | 55.47464 | -3.33442 | 13201 ft | 243 kts | 334° |
| 2026-05-05 19:21 | 55.49013 | -3.34593 | 13106 ft | 240 kts | 334° |
| 2026-05-05 19:21 | 55.50444 | -3.36042 | 12972 ft | 237 kts | 320° |
| 2026-05-05 19:22 | 55.51716 | -3.37921 | 12524 ft | 240 kts | 318° |
| 2026-05-05 19:22 | 55.52997 | -3.39826 | 12149 ft | 241 kts | 318° |
| 2026-05-05 19:22 | 55.54277 | -3.41727 | 11783 ft | 240 kts | 318° |
| 2026-05-05 19:22 | 55.55554 | -3.43621 | 11421 ft | 239 kts | 318° |
| 2026-05-05 19:23 | 55.56827 | -3.45511 | 11060 ft | 239 kts | 318° |
| 2026-05-05 19:23 | 55.58096 | -3.47399 | 10699 ft | 238 kts | 318° |
| 2026-05-05 19:23 | 55.59364 | -3.49285 | 10333 ft | 238 kts | 319° |
| 2026-05-05 19:23 | 55.60630 | -3.51169 | 9980 ft | 238 kts | 319° |
| 2026-05-05 19:24 | 55.61895 | -3.53051 | 9586 ft | 237 kts | 319° |
| 2026-05-05 19:24 | 55.63149 | -3.54919 | 9221 ft | 233 kts | 319° |
| 2026-05-05 19:24 | 55.64377 | -3.56750 | 8880 ft | 228 kts | 319° |
| 2026-05-05 19:24 | 55.65578 | -3.58546 | 8526 ft | 224 kts | 319° |
| 2026-05-05 19:25 | 55.66753 | -3.60305 | 8180 ft | 218 kts | 319° |
| 2026-05-05 19:25 | 55.67889 | -3.62006 | 7852 ft | 209 kts | 319° |
| 2026-05-05 19:25 | 55.68976 | -3.63638 | 7566 ft | 201 kts | 319° |
| 2026-05-05 19:25 | 55.70046 | -3.65217 | 7265 ft | 199 kts | 319° |
| 2026-05-05 19:26 | 55.71116 | -3.66770 | 6965 ft | 198 kts | 320° |
| 2026-05-05 19:26 | 55.72183 | -3.68311 | 6661 ft | 197 kts | 320° |
| 2026-05-05 19:26 | 55.73240 | -3.69840 | 6355 ft | 196 kts | 321° |
| 2026-05-05 19:26 | 55.74299 | -3.71377 | 5991 ft | 198 kts | 321° |
| 2026-05-05 19:27 | 55.75366 | -3.72928 | 5656 ft | 198 kts | 322° |
| 2026-05-05 19:27 | 55.76384 | -3.74592 | 5345 ft | 200 kts | 318° |
| 2026-05-05 19:27 | 55.77360 | -3.76330 | 5198 ft | 198 kts | 317° |
| 2026-05-05 19:27 | 55.78337 | -3.78075 | 5148 ft | 199 kts | 320° |
| 2026-05-05 19:28 | 55.79557 | -3.79024 | 5126 ft | 191 kts | 359° |
| 2026-05-05 19:28 | 55.80779 | -3.78369 | 5074 ft | 183 kts | 37° |
| 2026-05-05 19:28 | 55.81543 | -3.76601 | 5029 ft | 180 kts | 58° |
| 2026-05-05 19:28 | 55.82195 | -3.74699 | 4877 ft | 179 kts | 58° |
| 2026-05-05 19:29 | 55.82840 | -3.72821 | 4665 ft | 178 kts | 58° |
| 2026-05-05 19:29 | 55.83487 | -3.70942 | 4430 ft | 176 kts | 58° |
| 2026-05-05 19:29 | 55.84113 | -3.69122 | 4183 ft | 169 kts | 59° |
| 2026-05-05 19:29 | 55.84714 | -3.67372 | 3954 ft | 163 kts | 59° |
| 2026-05-05 19:30 | 55.85297 | -3.65676 | 3729 ft | 158 kts | 59° |
| 2026-05-05 19:30 | 55.85862 | -3.64030 | 3524 ft | 154 kts | 60° |
| 2026-05-05 19:30 | 55.86413 | -3.62423 | 3311 ft | 151 kts | 59° |
| 2026-05-05 19:30 | 55.86955 | -3.60842 | 3094 ft | 150 kts | 60° |
| 2026-05-05 19:31 | 55.87495 | -3.59267 | 2896 ft | 148 kts | 60° |
| 2026-05-05 19:31 | 55.88034 | -3.57689 | 2687 ft | 149 kts | 61° |
| 2026-05-05 19:31 | 55.88573 | -3.56115 | 2480 ft | 148 kts | 62° |
| 2026-05-05 19:31 | 55.89104 | -3.54560 | 2266 ft | 147 kts | 62° |
| 2026-05-05 19:32 | 55.89636 | -3.53004 | 2065 ft | 146 kts | 62° |
| 2026-05-05 19:32 | 55.90163 | -3.51459 | 1863 ft | 146 kts | 62° |
| 2026-05-05 19:32 | 55.90682 | -3.49940 | 1660 ft | 137 kts | 62° |
| 2026-05-05 19:32 | 55.91001 | -3.49006 | 1526 ft | 129 kts | 63° |
| 2026-05-05 19:33 | 55.91603 | -3.47259 | 1255 ft | 121 kts | 62° |
| 2026-05-05 19:33 | 55.91896 | -3.46404 | 1131 ft | 121 kts | 62° |
| 2026-05-05 19:33 | 55.92341 | -3.45128 | 927 ft | 120 kts | 62° |
| 2026-05-05 19:33 | 55.92778 | -3.43850 | 780 ft | 119 kts | 63° |
| 2026-05-05 19:34 | 55.93208 | -3.42560 | 654 ft | 121 kts | 62° |
| 2026-05-05 19:34 | 55.93645 | -3.41292 | 499 ft | 119 kts | 62° |
| 2026-05-05 19:34 | 55.94072 | -3.40007 | 322 ft | 120 kts | 62° |
| 2026-05-05 19:35 | 55.94901 | -3.37527 | 113 ft | 94 kts | 61° |
| 2026-05-05 19:35 | 55.95148 | -3.36791 | 114 ft | 44 kts | 58° |
| 2026-05-05 19:35 | 55.95300 | -3.36360 | 111 ft | 44 kts | 59° |
| 2026-05-05 19:35 | 55.95463 | -3.35883 | 112 ft | 33 kts | 58° |
| 2026-05-05 19:36 | 55.95554 | -3.35612 | 112 ft | 13 kts | 59° |
| 2026-05-05 19:36 | 55.95531 | -3.35475 | 115 ft | 12 kts | 148° |
| 2026-05-05 19:36 | 55.95462 | -3.35407 | 116 ft | 11 kts | 166° |
| 2026-05-05 19:36 | 55.95407 | -3.35476 | 116 ft | 10 kts | 238° |
| 2026-05-05 19:37 | 55.95373 | -3.35578 | 116 ft | 9 kts | 239° |
| 2026-05-05 19:37 | 55.95342 | -3.35670 | 114 ft | 8 kts | 239° |
| 2026-05-05 19:37 | 55.95314 | -3.35752 | 113 ft | 7 kts | 239° |
| 2026-05-05 19:37 | 55.95289 | -3.35825 | 116 ft | 7 kts | 238° |
| 2026-05-05 19:38 | 55.95260 | -3.35909 | 115 ft | 9 kts | 239° |
| 2026-05-05 19:38 | 55.95224 | -3.36016 | 116 ft | 11 kts | 238° |
| 2026-05-05 19:38 | 55.95194 | -3.36102 | 114 ft | 4 kts | 237° |
| 2026-05-05 19:38 | 55.95174 | -3.36157 | 115 ft | 6 kts | 237° |
| 2026-05-05 19:39 | 55.95149 | -3.36232 | 113 ft | 8 kts | 242° |
| 2026-05-05 19:39 | 55.95120 | -3.36325 | 116 ft | 9 kts | 239° |
| 2026-05-05 19:39 | 55.95071 | -3.36397 | 116 ft | 10 kts | 184° |
| 2026-05-05 19:39 | 55.95007 | -3.36423 | 116 ft | 9 kts | 223° |
| 2026-05-05 19:40 | 55.94971 | -3.36524 | 115 ft | 10 kts | 239° |
| 2026-05-05 19:40 | 55.94941 | -3.36605 | 112 ft | 6 kts | 221° |
| 2026-05-05 19:40 | 55.94908 | -3.36577 | 113 ft | 6 kts | 141° |
| 2026-05-05 19:40 | 55.94880 | -3.36547 | 113 ft | 1 kts | 148° |
| 2026-05-05 19:41 | 55.94879 | -3.36547 | 113 ft | 0 kts | 148° |